sensor_id;sensor_type;location;lat;lon;timestamp;pressure;altitude;pressure_sealevel;temperature;humidity
18678;BME280;9469;51.114;13.914;2022-11-20T00:04:08;98432.63;;;-4.37;100.00
18678;BME280;9469;51.114;13.914;2022-11-20T00:09:15;98433.09;;;-4.47;100.00
18678;BME280;9469;51.114;13.914;2022-11-20T00:14:23;98424.50;;;-4.47;100.00
18678;BME280;9469;51.114;13.914;2022-11-20T00:19:29;98426.28;;;-4.48;100.00
18678;BME280;9469;51.114;13.914;2022-11-20T00:24:35;98420.56;;;-4.56;100.00
18678;BME280;9469;51.114;13.914;2022-11-20T00:29:46;98425.66;;;-4.43;100.00
18678;BME280;9469;51.114;13.914;2022-11-20T00:34:51;98429.28;;;-4.19;100.00
18678;BME280;9469;51.114;13.914;2022-11-20T00:39:56;98422.81;;;-4.35;100.00
18678;BME280;9469;51.114;13.914;2022-11-20T00:45:05;98432.97;;;-4.58;100.00
18678;BME280;9469;51.114;13.914;2022-11-20T00:50:10;98434.34;;;-4.56;100.00
18678;BME280;9469;51.114;13.914;2022-11-20T00:55:15;98437.16;;;-4.57;100.00
18678;BME280;9469;51.114;13.914;2022-11-20T01:00:24;98445.28;;;-4.47;100.00
18678;BME280;9469;51.114;13.914;2022-11-20T01:05:29;98443.84;;;-4.43;100.00
18678;BME280;9469;51.114;13.914;2022-11-20T01:10:38;98435.38;;;-4.63;100.00
18678;BME280;9469;51.114;13.914;2022-11-20T01:15:48;98430.25;;;-4.70;100.00
18678;BME280;9469;51.114;13.914;2022-11-20T01:20:53;98435.81;;;-4.66;100.00
18678;BME280;9469;51.114;13.914;2022-11-20T01:25:59;98439.91;;;-4.52;100.00
18678;BME280;9469;51.114;13.914;2022-11-20T01:31:16;98436.84;;;-4.43;100.00
18678;BME280;9469;51.114;13.914;2022-11-20T01:36:25;98436.53;;;-4.53;100.00
18678;BME280;9469;51.114;13.914;2022-11-20T01:41:32;98431.47;;;-4.41;100.00
18678;BME280;9469;51.114;13.914;2022-11-20T01:47:02;98419.69;;;-4.68;100.00
18678;BME280;9469;51.114;13.914;2022-11-20T01:52:13;98413.88;;;-4.70;100.00
18678;BME280;9469;51.114;13.914;2022-11-20T01:57:20;98408.06;;;-4.66;100.00
18678;BME280;9469;51.114;13.914;2022-11-20T02:02:29;98410.88;;;-4.67;100.00
18678;BME280;9469;51.114;13.914;2022-11-20T02:07:34;98410.16;;;-4.81;100.00
18678;BME280;9469;51.114;13.914;2022-11-20T02:12:41;98415.47;;;-5.00;100.00
18678;BME280;9469;51.114;13.914;2022-11-20T02:18:01;98409.84;;;-4.97;100.00
18678;BME280;9469;51.114;13.914;2022-11-20T02:23:12;98404.06;;;-4.99;100.00
18678;BME280;9469;51.114;13.914;2022-11-20T02:28:21;98397.44;;;-4.89;100.00
18678;BME280;9469;51.114;13.914;2022-11-20T02:33:27;98397.84;;;-4.92;100.00
18678;BME280;9469;51.114;13.914;2022-11-20T02:38:32;98400.66;;;-4.93;100.00
18678;BME280;9469;51.114;13.914;2022-11-20T02:43:40;98399.91;;;-5.00;100.00
18678;BME280;9469;51.114;13.914;2022-11-20T02:48:45;98399.44;;;-4.91;100.00
18678;BME280;9469;51.114;13.914;2022-11-20T02:53:50;98413.47;;;-4.98;100.00
18678;BME280;9469;51.114;13.914;2022-11-20T02:58:58;98406.25;;;-4.96;100.00
18678;BME280;9469;51.114;13.914;2022-11-20T03:04:04;98401.88;;;-4.96;100.00
18678;BME280;9469;51.114;13.914;2022-11-20T03:09:09;98398.13;;;-5.00;100.00
18678;BME280;9469;51.114;13.914;2022-11-20T03:14:16;98399.72;;;-4.74;100.00
18678;BME280;9469;51.114;13.914;2022-11-20T03:19:22;98389.97;;;-4.79;100.00
18678;BME280;9469;51.114;13.914;2022-11-20T03:24:27;98390.97;;;-4.73;100.00
18678;BME280;9469;51.114;13.914;2022-11-20T03:29:35;98382.50;;;-4.93;100.00
18678;BME280;9469;51.114;13.914;2022-11-20T03:34:40;98373.50;;;-4.91;100.00
18678;BME280;9469;51.114;13.914;2022-11-20T03:39:45;98373.53;;;-4.97;100.00
18678;BME280;9469;51.114;13.914;2022-11-20T03:44:52;98382.06;;;-4.90;100.00
18678;BME280;9469;51.114;13.914;2022-11-20T03:49:57;98388.44;;;-5.24;100.00
18678;BME280;9469;51.114;13.914;2022-11-20T03:55:05;98388.63;;;-5.19;100.00
18678;BME280;9469;51.114;13.914;2022-11-20T04:00:14;98394.03;;;-5.21;100.00
18678;BME280;9469;51.114;13.914;2022-11-20T04:05:19;98379.22;;;-5.14;100.00
18678;BME280;9469;51.114;13.914;2022-11-20T04:10:24;98375.78;;;-5.07;100.00
18678;BME280;9469;51.114;13.914;2022-11-20T04:15:32;98368.97;;;-5.40;100.00
18678;BME280;9469;51.114;13.914;2022-11-20T04:20:39;98366.94;;;-5.31;100.00
18678;BME280;9469;51.114;13.914;2022-11-20T04:25:44;98365.75;;;-5.35;100.00
18678;BME280;9469;51.114;13.914;2022-11-20T04:30:52;98355.88;;;-5.58;100.00
18678;BME280;9469;51.114;13.914;2022-11-20T04:36:00;98358.59;;;-5.40;100.00
18678;BME280;9469;51.114;13.914;2022-11-20T04:41:08;98347.56;;;-5.29;100.00
18678;BME280;9469;51.114;13.914;2022-11-20T04:46:17;98350.22;;;-5.35;100.00
18678;BME280;9469;51.114;13.914;2022-11-20T04:51:23;98354.69;;;-5.55;100.00
18678;BME280;9469;51.114;13.914;2022-11-20T04:56:28;98346.63;;;-5.34;100.00
18678;BME280;9469;51.114;13.914;2022-11-20T05:01:36;98345.94;;;-5.54;100.00
18678;BME280;9469;51.114;13.914;2022-11-20T05:06:41;98351.25;;;-5.43;100.00
18678;BME280;9469;51.114;13.914;2022-11-20T05:11:47;98362.97;;;-5.34;100.00
18678;BME280;9469;51.114;13.914;2022-11-20T05:16:55;98362.75;;;-5.32;100.00
18678;BME280;9469;51.114;13.914;2022-11-20T05:22:00;98360.25;;;-5.45;100.00
18678;BME280;9469;51.114;13.914;2022-11-20T05:27:05;98359.03;;;-5.43;100.00
18678;BME280;9469;51.114;13.914;2022-11-20T05:32:13;98348.56;;;-5.61;100.00
18678;BME280;9469;51.114;13.914;2022-11-20T05:37:17;98358.66;;;-5.53;100.00
18678;BME280;9469;51.114;13.914;2022-11-20T05:42:23;98351.06;;;-5.48;100.00
18678;BME280;9469;51.114;13.914;2022-11-20T05:47:40;98343.50;;;-5.49;100.00
18678;BME280;9469;51.114;13.914;2022-11-20T05:52:45;98341.34;;;-5.59;100.00
18678;BME280;9469;51.114;13.914;2022-11-20T05:57:53;98342.28;;;-5.47;100.00
18678;BME280;9469;51.114;13.914;2022-11-20T06:03:01;98330.53;;;-5.43;100.00
18678;BME280;9469;51.114;13.914;2022-11-20T06:08:06;98331.16;;;-5.47;100.00
18678;BME280;9469;51.114;13.914;2022-11-20T06:13:12;98323.69;;;-5.37;100.00
18678;BME280;9469;51.114;13.914;2022-11-20T06:18:19;98332.38;;;-5.19;100.00
18678;BME280;9469;51.114;13.914;2022-11-20T06:23:25;98330.91;;;-5.08;100.00
18678;BME280;9469;51.114;13.914;2022-11-20T06:28:32;98325.44;;;-5.25;100.00
18678;BME280;9469;51.114;13.914;2022-11-20T06:33:40;98332.47;;;-5.32;100.00
18678;BME280;9469;51.114;13.914;2022-11-20T06:38:45;98341.28;;;-5.46;100.00
18678;BME280;9469;51.114;13.914;2022-11-20T06:43:52;98327.50;;;-5.40;100.00
18678;BME280;9469;51.114;13.914;2022-11-20T06:48:59;98324.19;;;-5.16;100.00
18678;BME280;9469;51.114;13.914;2022-11-20T06:54:05;98319.41;;;-4.87;100.00
18678;BME280;9469;51.114;13.914;2022-11-20T06:59:10;98320.53;;;-5.08;100.00
18678;BME280;9469;51.114;13.914;2022-11-20T07:04:18;98314.19;;;-5.12;100.00
18678;BME280;9469;51.114;13.914;2022-11-20T07:09:23;98315.00;;;-5.12;100.00
18678;BME280;9469;51.114;13.914;2022-11-20T07:14:28;98304.47;;;-4.92;100.00
18678;BME280;9469;51.114;13.914;2022-11-20T07:19:36;98308.50;;;-4.96;100.00
18678;BME280;9469;51.114;13.914;2022-11-20T07:24:41;98302.69;;;-4.91;100.00
18678;BME280;9469;51.114;13.914;2022-11-20T07:29:47;98308.72;;;-4.73;100.00
18678;BME280;9469;51.114;13.914;2022-11-20T07:34:57;98303.50;;;-4.48;100.00
18678;BME280;9469;51.114;13.914;2022-11-20T07:40:04;98296.59;;;-4.36;100.00
18678;BME280;9469;51.114;13.914;2022-11-20T07:45:10;98295.44;;;-4.40;100.00
18678;BME280;9469;51.114;13.914;2022-11-20T07:50:19;98285.50;;;-4.25;100.00
18678;BME280;9469;51.114;13.914;2022-11-20T07:55:24;98291.00;;;-4.15;100.00
18678;BME280;9469;51.114;13.914;2022-11-20T08:00:29;98282.69;;;-3.69;100.00
18678;BME280;9469;51.114;13.914;2022-11-20T08:05:38;98289.09;;;-3.53;100.00
18678;BME280;9469;51.114;13.914;2022-11-20T08:10:45;98287.09;;;-3.40;100.00
18678;BME280;9469;51.114;13.914;2022-11-20T08:15:52;98275.13;;;-3.29;100.00
18678;BME280;9469;51.114;13.914;2022-11-20T08:21:01;98288.19;;;-3.18;100.00
18678;BME280;9469;51.114;13.914;2022-11-20T08:26:07;98282.78;;;-3.05;100.00
18678;BME280;9469;51.114;13.914;2022-11-20T08:31:12;98275.69;;;-2.86;100.00
18678;BME280;9469;51.114;13.914;2022-11-20T08:36:22;98280.25;;;-2.70;100.00
18678;BME280;9469;51.114;13.914;2022-11-20T08:41:29;98283.97;;;-2.66;100.00
18678;BME280;9469;51.114;13.914;2022-11-20T08:46:38;98283.88;;;-2.59;100.00
18678;BME280;9469;51.114;13.914;2022-11-20T08:51:48;98280.59;;;-2.43;100.00
18678;BME280;9469;51.114;13.914;2022-11-20T08:56:57;98277.72;;;-2.19;100.00
18678;BME280;9469;51.114;13.914;2022-11-20T09:02:02;98278.19;;;-2.22;100.00
18678;BME280;9469;51.114;13.914;2022-11-20T09:07:09;98255.31;;;-2.20;100.00
18678;BME280;9469;51.114;13.914;2022-11-20T09:12:16;98253.81;;;-2.04;100.00
18678;BME280;9469;51.114;13.914;2022-11-20T09:17:21;98249.59;;;-1.93;100.00
18678;BME280;9469;51.114;13.914;2022-11-20T09:22:28;98252.31;;;-1.88;100.00
18678;BME280;9469;51.114;13.914;2022-11-20T09:27:37;98242.53;;;-1.53;100.00
18678;BME280;9469;51.114;13.914;2022-11-20T09:32:43;98242.91;;;-1.61;100.00
18678;BME280;9469;51.114;13.914;2022-11-20T09:37:51;98252.66;;;-1.57;100.00
18678;BME280;9469;51.114;13.914;2022-11-20T09:42:59;98255.38;;;-1.35;100.00
18678;BME280;9469;51.114;13.914;2022-11-20T09:48:17;98254.72;;;-1.14;100.00
18678;BME280;9469;51.114;13.914;2022-11-20T09:53:32;98239.19;;;-1.04;98.36
18678;BME280;9469;51.114;13.914;2022-11-20T09:58:44;98230.41;;;-0.81;99.03
18678;BME280;9469;51.114;13.914;2022-11-20T10:03:54;98233.38;;;-0.78;99.33
18678;BME280;9469;51.114;13.914;2022-11-20T10:09:11;98226.75;;;-0.47;97.22
18678;BME280;9469;51.114;13.914;2022-11-20T10:14:29;98222.59;;;-0.64;97.74
18678;BME280;9469;51.114;13.914;2022-11-20T10:19:51;98215.44;;;0.34;92.96
18678;BME280;9469;51.114;13.914;2022-11-20T10:25:08;98226.97;;;0.12;92.95
18678;BME280;9469;51.114;13.914;2022-11-20T10:30:18;98213.03;;;0.54;92.13
18678;BME280;9469;51.114;13.914;2022-11-20T10:35:28;98213.03;;;1.18;88.92
18678;BME280;9469;51.114;13.914;2022-11-20T10:40:43;98210.28;;;2.58;82.27
18678;BME280;9469;51.114;13.914;2022-11-20T10:45:53;98199.00;;;2.88;81.15
18678;BME280;9469;51.114;13.914;2022-11-20T10:51:12;98192.69;;;2.64;83.39
18678;BME280;9469;51.114;13.914;2022-11-20T10:56:29;98178.84;;;3.98;75.48
18678;BME280;9469;51.114;13.914;2022-11-20T11:01:40;98187.75;;;4.89;70.15
18678;BME280;9469;51.114;13.914;2022-11-20T11:06:47;98196.44;;;4.51;68.45
18678;BME280;9469;51.114;13.914;2022-11-20T11:11:57;98194.25;;;4.14;72.81
18678;BME280;9469;51.114;13.914;2022-11-20T11:17:24;98188.50;;;2.88;80.14
18678;BME280;9469;51.114;13.914;2022-11-20T11:22:31;98164.63;;;4.48;73.01
18678;BME280;9469;51.114;13.914;2022-11-20T11:27:49;98157.09;;;4.26;72.93
18678;BME280;9469;51.114;13.914;2022-11-20T11:33:05;98155.84;;;4.57;73.70
18678;BME280;9469;51.114;13.914;2022-11-20T11:38:15;98151.69;;;4.85;72.64
18678;BME280;9469;51.114;13.914;2022-11-20T11:43:28;98137.69;;;4.12;78.30
18678;BME280;9469;51.114;13.914;2022-11-20T11:48:55;98122.09;;;3.67;79.57
18678;BME280;9469;51.114;13.914;2022-11-20T11:54:04;98114.94;;;4.70;75.54
18678;BME280;9469;51.114;13.914;2022-11-20T11:59:26;98107.28;;;4.34;73.98
18678;BME280;9469;51.114;13.914;2022-11-20T12:04:42;98100.75;;;4.66;75.34
18678;BME280;9469;51.114;13.914;2022-11-20T12:09:54;98108.41;;;4.91;72.33
18678;BME280;9469;51.114;13.914;2022-11-20T12:15:13;98099.84;;;3.49;81.17
18678;BME280;9469;51.114;13.914;2022-11-20T12:20:23;98090.75;;;4.91;74.30
18678;BME280;9469;51.114;13.914;2022-11-20T12:25:31;98096.28;;;3.79;78.97
18678;BME280;9469;51.114;13.914;2022-11-20T12:30:49;98100.63;;;3.49;82.19
18678;BME280;9469;51.114;13.914;2022-11-20T12:36:07;98104.63;;;3.32;83.79
18678;BME280;9469;51.114;13.914;2022-11-20T12:41:21;98087.84;;;3.23;85.08
18678;BME280;9469;51.114;13.914;2022-11-20T12:47:04;98100.78;;;2.59;87.98
18678;BME280;9469;51.114;13.914;2022-11-20T12:52:27;98107.84;;;2.33;89.33
18678;BME280;9469;51.114;13.914;2022-11-20T12:57:41;98103.44;;;2.69;88.40
18678;BME280;9469;51.114;13.914;2022-11-20T13:03:18;98121.47;;;2.05;88.38
18678;BME280;9469;51.114;13.914;2022-11-20T13:08:30;98108.34;;;2.00;91.20
18678;BME280;9469;51.114;13.914;2022-11-20T13:13:45;98109.13;;;2.00;92.17
18678;BME280;9469;51.114;13.914;2022-11-20T13:18:55;98108.59;;;1.98;93.37
18678;BME280;9469;51.114;13.914;2022-11-20T13:24:04;98093.03;;;1.67;94.57
18678;BME280;9469;51.114;13.914;2022-11-20T13:29:12;98087.25;;;1.60;95.73
18678;BME280;9469;51.114;13.914;2022-11-20T13:34:26;98074.41;;;1.58;95.80
18678;BME280;9469;51.114;13.914;2022-11-20T13:39:33;98079.34;;;1.55;95.76
18678;BME280;9469;51.114;13.914;2022-11-20T13:44:46;98071.50;;;1.60;96.43
18678;BME280;9469;51.114;13.914;2022-11-20T13:49:55;98075.38;;;1.42;97.86
18678;BME280;9469;51.114;13.914;2022-11-20T13:55:16;98076.28;;;1.78;96.10
18678;BME280;9469;51.114;13.914;2022-11-20T14:00:26;98078.97;;;2.03;97.16
18678;BME280;9469;51.114;13.914;2022-11-20T14:05:36;98066.78;;;1.57;98.43
18678;BME280;9469;51.114;13.914;2022-11-20T14:10:42;98074.97;;;1.75;97.67
18678;BME280;9469;51.114;13.914;2022-11-20T14:15:47;98084.78;;;1.38;98.74
18678;BME280;9469;51.114;13.914;2022-11-20T14:20:54;98081.63;;;1.36;97.79
18678;BME280;9469;51.114;13.914;2022-11-20T14:25:59;98071.25;;;1.04;99.00
18678;BME280;9469;51.114;13.914;2022-11-20T14:31:17;98082.81;;;1.08;99.03
18678;BME280;9469;51.114;13.914;2022-11-20T14:36:26;98073.25;;;0.87;99.18
18678;BME280;9469;51.114;13.914;2022-11-20T14:41:32;98084.34;;;0.62;99.31
18678;BME280;9469;51.114;13.914;2022-11-20T14:46:38;98092.56;;;0.76;98.18
18678;BME280;9469;51.114;13.914;2022-11-20T14:51:46;98088.63;;;0.73;98.42
18678;BME280;9469;51.114;13.914;2022-11-20T14:56:55;98070.78;;;0.65;98.93
18678;BME280;9469;51.114;13.914;2022-11-20T15:02:03;98064.13;;;0.21;100.00
18678;BME280;9469;51.114;13.914;2022-11-20T15:07:11;98066.38;;;0.39;100.00
18678;BME280;9469;51.114;13.914;2022-11-20T15:12:17;98064.94;;;0.22;100.00
18678;BME280;9469;51.114;13.914;2022-11-20T15:17:23;98070.84;;;0.12;100.00
18678;BME280;9469;51.114;13.914;2022-11-20T15:22:31;98063.28;;;0.42;100.00
18678;BME280;9469;51.114;13.914;2022-11-20T15:27:36;98061.09;;;0.34;100.00
18678;BME280;9469;51.114;13.914;2022-11-20T15:32:41;98060.19;;;0.19;100.00
18678;BME280;9469;51.114;13.914;2022-11-20T15:37:50;98063.22;;;0.06;100.00
18678;BME280;9469;51.114;13.914;2022-11-20T15:42:56;98056.41;;;0.36;100.00
18678;BME280;9469;51.114;13.914;2022-11-20T15:48:16;98057.66;;;0.29;100.00
18678;BME280;9469;51.114;13.914;2022-11-20T15:53:25;98073.34;;;-0.03;100.00
18678;BME280;9469;51.114;13.914;2022-11-20T15:58:30;98061.81;;;-0.07;100.00
18678;BME280;9469;51.114;13.914;2022-11-20T16:03:35;98060.81;;;-0.01;100.00
18678;BME280;9469;51.114;13.914;2022-11-20T16:08:43;98076.75;;;-0.03;100.00
18678;BME280;9469;51.114;13.914;2022-11-20T16:13:48;98067.66;;;-0.22;100.00
18678;BME280;9469;51.114;13.914;2022-11-20T16:19:05;98072.19;;;0.15;100.00
18678;BME280;9469;51.114;13.914;2022-11-20T16:24:14;98080.72;;;0.05;100.00
18678;BME280;9469;51.114;13.914;2022-11-20T16:29:21;98071.53;;;0.29;100.00
18678;BME280;9469;51.114;13.914;2022-11-20T16:34:27;98074.31;;;0.18;100.00
18678;BME280;9469;51.114;13.914;2022-11-20T16:39:35;98075.06;;;0.13;100.00
18678;BME280;9469;51.114;13.914;2022-11-20T16:44:47;98085.16;;;-0.22;100.00
18678;BME280;9469;51.114;13.914;2022-11-20T16:49:53;98092.97;;;-0.27;100.00
18678;BME280;9469;51.114;13.914;2022-11-20T16:55:01;98083.28;;;-0.27;100.00
18678;BME280;9469;51.114;13.914;2022-11-20T17:00:08;98079.97;;;-0.44;100.00
18678;BME280;9469;51.114;13.914;2022-11-20T17:05:14;98073.00;;;-0.82;100.00
18678;BME280;9469;51.114;13.914;2022-11-20T17:10:21;98084.19;;;-1.03;100.00
18678;BME280;9469;51.114;13.914;2022-11-20T17:15:26;98080.69;;;-0.92;100.00
18678;BME280;9469;51.114;13.914;2022-11-20T17:20:38;98080.22;;;-1.05;100.00
18678;BME280;9469;51.114;13.914;2022-11-20T17:25:45;98067.19;;;-1.22;100.00
18678;BME280;9469;51.114;13.914;2022-11-20T17:30:50;98064.84;;;-1.40;100.00
18678;BME280;9469;51.114;13.914;2022-11-20T17:35:55;98072.84;;;-1.47;100.00
18678;BME280;9469;51.114;13.914;2022-11-20T17:41:05;98067.09;;;-1.10;100.00
18678;BME280;9469;51.114;13.914;2022-11-20T17:46:13;98059.06;;;-1.25;100.00
18678;BME280;9469;51.114;13.914;2022-11-20T17:51:22;98056.22;;;-1.24;100.00
18678;BME280;9469;51.114;13.914;2022-11-20T17:56:32;98062.06;;;-1.17;100.00
18678;BME280;9469;51.114;13.914;2022-11-20T18:01:50;98059.78;;;-1.47;100.00
18678;BME280;9469;51.114;13.914;2022-11-20T18:07:00;98062.09;;;-1.83;100.00
18678;BME280;9469;51.114;13.914;2022-11-20T18:12:08;98046.97;;;-2.14;100.00
18678;BME280;9469;51.114;13.914;2022-11-20T18:17:15;98040.78;;;-2.25;100.00
18678;BME280;9469;51.114;13.914;2022-11-20T18:22:23;98045.91;;;-2.30;100.00
18678;BME280;9469;51.114;13.914;2022-11-20T18:27:31;98042.31;;;-2.12;100.00
18678;BME280;9469;51.114;13.914;2022-11-20T18:32:43;98039.63;;;-2.17;100.00
18678;BME280;9469;51.114;13.914;2022-11-20T18:37:49;98032.38;;;-2.15;100.00
18678;BME280;9469;51.114;13.914;2022-11-20T18:42:56;98036.53;;;-2.14;100.00
18678;BME280;9469;51.114;13.914;2022-11-20T18:48:14;98036.84;;;-2.28;100.00
18678;BME280;9469;51.114;13.914;2022-11-20T18:53:19;98033.81;;;-2.36;100.00
18678;BME280;9469;51.114;13.914;2022-11-20T18:58:28;98046.78;;;-2.53;100.00
18678;BME280;9469;51.114;13.914;2022-11-20T19:03:36;98038.56;;;-2.61;100.00
18678;BME280;9469;51.114;13.914;2022-11-20T19:08:49;98041.19;;;-2.73;100.00
18678;BME280;9469;51.114;13.914;2022-11-20T19:13:58;98034.97;;;-2.72;100.00
18678;BME280;9469;51.114;13.914;2022-11-20T19:19:08;98034.56;;;-2.80;100.00
18678;BME280;9469;51.114;13.914;2022-11-20T19:24:13;98033.50;;;-2.68;100.00
18678;BME280;9469;51.114;13.914;2022-11-20T19:29:23;98019.53;;;-2.90;100.00
18678;BME280;9469;51.114;13.914;2022-11-20T19:34:32;98013.09;;;-2.99;100.00
18678;BME280;9469;51.114;13.914;2022-11-20T19:39:38;98017.09;;;-3.08;100.00
18678;BME280;9469;51.114;13.914;2022-11-20T19:44:46;98012.31;;;-3.11;100.00
18678;BME280;9469;51.114;13.914;2022-11-20T19:49:51;98010.31;;;-3.32;100.00
18678;BME280;9469;51.114;13.914;2022-11-20T19:54:58;98000.63;;;-3.48;100.00
18678;BME280;9469;51.114;13.914;2022-11-20T20:00:07;98008.63;;;-3.62;100.00
18678;BME280;9469;51.114;13.914;2022-11-20T20:05:13;98002.31;;;-3.54;100.00
18678;BME280;9469;51.114;13.914;2022-11-20T20:10:19;97998.59;;;-3.46;100.00
18678;BME280;9469;51.114;13.914;2022-11-20T20:15:28;97992.22;;;-3.27;100.00
18678;BME280;9469;51.114;13.914;2022-11-20T20:20:33;97994.63;;;-3.37;100.00
18678;BME280;9469;51.114;13.914;2022-11-20T20:25:39;97988.75;;;-3.44;100.00
18678;BME280;9469;51.114;13.914;2022-11-20T20:30:47;97994.97;;;-3.69;100.00
18678;BME280;9469;51.114;13.914;2022-11-20T20:35:52;97990.44;;;-3.62;100.00
18678;BME280;9469;51.114;13.914;2022-11-20T20:40:58;97979.34;;;-3.57;100.00
18678;BME280;9469;51.114;13.914;2022-11-20T20:46:06;97973.72;;;-3.66;100.00
18678;BME280;9469;51.114;13.914;2022-11-20T20:51:11;97984.69;;;-3.64;100.00
18678;BME280;9469;51.114;13.914;2022-11-20T20:56:17;97954.28;;;-3.51;100.00
18678;BME280;9469;51.114;13.914;2022-11-20T21:01:25;97962.41;;;-3.48;100.00
18678;BME280;9469;51.114;13.914;2022-11-20T21:06:30;97952.78;;;-3.36;100.00
18678;BME280;9469;51.114;13.914;2022-11-20T21:11:35;97937.44;;;-3.49;100.00
18678;BME280;9469;51.114;13.914;2022-11-20T21:16:44;97935.81;;;-3.38;100.00
18678;BME280;9469;51.114;13.914;2022-11-20T21:21:49;97935.66;;;-3.20;100.00
18678;BME280;9469;51.114;13.914;2022-11-20T21:27:05;97918.00;;;-3.18;100.00
18678;BME280;9469;51.114;13.914;2022-11-20T21:32:13;97891.72;;;-3.33;100.00
18678;BME280;9469;51.114;13.914;2022-11-20T21:37:18;97879.66;;;-3.11;100.00
18678;BME280;9469;51.114;13.914;2022-11-20T21:42:23;97879.91;;;-2.96;100.00
18678;BME280;9469;51.114;13.914;2022-11-20T21:47:32;97856.28;;;-2.95;100.00
18678;BME280;9469;51.114;13.914;2022-11-20T21:52:37;97852.03;;;-2.84;100.00
18678;BME280;9469;51.114;13.914;2022-11-20T21:57:42;97851.59;;;-2.48;100.00
18678;BME280;9469;51.114;13.914;2022-11-20T22:02:50;97837.38;;;-2.73;100.00
18678;BME280;9469;51.114;13.914;2022-11-20T22:07:54;97829.91;;;-2.70;100.00
18678;BME280;9469;51.114;13.914;2022-11-20T22:13:03;97830.91;;;-2.54;100.00
18678;BME280;9469;51.114;13.914;2022-11-20T22:18:23;97824.28;;;-2.45;100.00
18678;BME280;9469;51.114;13.914;2022-11-20T22:23:28;97815.88;;;-2.31;100.00
18678;BME280;9469;51.114;13.914;2022-11-20T22:28:34;97812.75;;;-2.33;100.00
18678;BME280;9469;51.114;13.914;2022-11-20T22:33:42;97789.75;;;-2.19;100.00
18678;BME280;9469;51.114;13.914;2022-11-20T22:38:47;97783.81;;;-2.14;100.00
18678;BME280;9469;51.114;13.914;2022-11-20T22:43:53;97784.72;;;-2.26;100.00
18678;BME280;9469;51.114;13.914;2022-11-20T22:49:03;97781.63;;;-2.23;100.00
18678;BME280;9469;51.114;13.914;2022-11-20T22:54:09;97778.13;;;-1.90;100.00
18678;BME280;9469;51.114;13.914;2022-11-20T22:59:15;97764.19;;;-2.00;100.00
18678;BME280;9469;51.114;13.914;2022-11-20T23:04:22;97763.22;;;-1.94;100.00
18678;BME280;9469;51.114;13.914;2022-11-20T23:09:27;97757.34;;;-1.85;100.00
18678;BME280;9469;51.114;13.914;2022-11-20T23:14:32;97745.66;;;-1.82;100.00
18678;BME280;9469;51.114;13.914;2022-11-20T23:19:42;97742.03;;;-1.81;100.00
18678;BME280;9469;51.114;13.914;2022-11-20T23:24:47;97725.53;;;-1.87;100.00
18678;BME280;9469;51.114;13.914;2022-11-20T23:29:52;97717.03;;;-1.77;100.00
18678;BME280;9469;51.114;13.914;2022-11-20T23:35:02;97716.03;;;-1.71;100.00
18678;BME280;9469;51.114;13.914;2022-11-20T23:40:08;97713.50;;;-1.66;100.00
18678;BME280;9469;51.114;13.914;2022-11-20T23:45:13;97706.28;;;-1.59;100.00
18678;BME280;9469;51.114;13.914;2022-11-20T23:50:21;97691.34;;;-1.37;100.00
18678;BME280;9469;51.114;13.914;2022-11-20T23:55:26;97685.69;;;-1.29;100.00
